createdAt,value
2023-05-19T00:04:21.637Z,18.85
2023-05-19T00:07:30.209Z,18.82
2023-05-19T00:10:33.560Z,18.80
2023-05-19T00:13:36.575Z,18.79
2023-05-19T00:16:39.122Z,18.77
2023-05-19T00:19:41.061Z,18.75
2023-05-19T00:22:45.118Z,18.72
2023-05-19T00:25:47.126Z,18.70
2023-05-19T00:35:09.401Z,18.65
2023-05-19T00:38:11.597Z,18.61
2023-05-19T00:41:13.730Z,18.60
2023-05-19T00:44:16.227Z,18.58
2023-05-19T00:47:18.498Z,18.56
2023-05-19T00:50:21.372Z,18.54
2023-05-19T00:53:24.852Z,18.52
2023-05-19T00:56:27.712Z,18.50
2023-05-19T00:59:30.040Z,18.47
2023-05-19T01:02:32.850Z,18.45
2023-05-19T01:05:35.228Z,18.43
2023-05-19T01:08:38.920Z,18.40
2023-05-19T01:11:41.103Z,18.38
2023-05-19T01:14:44.599Z,18.36
2023-05-19T01:18:03.613Z,18.33
2023-05-19T01:21:37.857Z,18.29
2023-05-19T01:25:01.952Z,18.24
2023-05-19T01:28:22.673Z,18.19
2023-05-19T01:31:26.853Z,18.14
2023-05-19T01:34:31.559Z,18.09
2023-05-19T01:37:34.858Z,18.05
2023-05-19T01:40:39.019Z,18.02
2023-05-19T01:43:41.396Z,17.99
2023-05-19T01:46:44.279Z,17.97
2023-05-19T01:49:47.676Z,17.94
2023-05-19T01:52:50.355Z,17.92
2023-05-19T01:55:55.392Z,17.90
2023-05-19T01:59:06.172Z,17.88
2023-05-19T02:04:50.702Z,17.83
2023-05-19T02:08:02.667Z,17.83
2023-05-19T02:11:34.965Z,17.82
2023-05-19T02:14:41.875Z,17.82
2023-05-19T02:17:47.882Z,17.81
2023-05-19T02:20:50.168Z,17.82
2023-05-19T02:23:53.169Z,17.81
2023-05-19T02:26:55.431Z,17.79
2023-05-19T02:29:57.823Z,17.78
2023-05-19T02:33:00.132Z,17.78
2023-05-19T02:36:03.165Z,17.76
2023-05-19T02:39:05.544Z,17.72
2023-05-19T02:42:08.945Z,17.68
2023-05-19T02:45:11.519Z,17.65
2023-05-19T02:48:16.747Z,17.63
2023-05-19T02:51:19.036Z,17.62
2023-05-19T02:54:21.221Z,17.61
2023-05-19T02:57:24.274Z,17.60
2023-05-19T03:00:26.513Z,17.60
2023-05-19T03:03:28.870Z,17.59
2023-05-19T03:06:32.758Z,17.58
2023-05-19T03:09:35.392Z,17.58
2023-05-19T03:12:37.539Z,17.57
2023-05-19T03:15:39.786Z,17.58
2023-05-19T03:18:42.964Z,17.59
2023-05-19T03:21:46.131Z,17.61
2023-05-19T03:24:50.907Z,17.63
2023-05-19T03:27:53.069Z,17.65
2023-05-19T03:30:55.881Z,17.68
2023-05-19T03:34:02.978Z,17.71
2023-05-19T03:37:05.508Z,17.75
2023-05-19T03:40:09.212Z,17.80
2023-05-19T03:43:13.035Z,17.83
2023-05-19T03:46:20.996Z,17.85
2023-05-19T03:49:36.231Z,17.87
2023-05-19T03:52:57.241Z,17.89
2023-05-19T03:56:11.369Z,17.92
2023-05-19T03:59:16.132Z,17.96
2023-05-19T04:04:23.455Z,18.00
2023-05-19T04:07:26.331Z,18.05
2023-05-19T04:10:29.030Z,18.09
2023-05-19T04:13:33.914Z,18.14
2023-05-19T04:16:36.494Z,18.19
2023-05-19T04:19:39.011Z,18.22
2023-05-19T04:22:41.878Z,18.26
2023-05-19T04:25:44.640Z,18.29
2023-05-19T04:28:46.930Z,18.30
2023-05-19T04:31:49.486Z,18.31
2023-05-19T04:34:52.747Z,18.29
2023-05-19T04:37:58.646Z,18.30
2023-05-19T04:41:04.958Z,18.31
2023-05-19T04:44:09.330Z,18.32
2023-05-19T04:47:12.546Z,18.35
2023-05-19T04:50:16.917Z,18.37
2023-05-19T04:53:22.090Z,18.39
2023-05-19T05:09:51.493Z,18.42
2023-05-19T05:12:54.385Z,18.39
2023-05-19T05:15:56.959Z,18.37
2023-05-19T05:19:00.293Z,18.35
2023-05-19T05:22:03.267Z,18.33
2023-05-19T05:25:07.078Z,18.33
2023-05-19T05:28:10.709Z,18.32
2023-05-19T05:31:13.052Z,18.32
2023-05-19T05:34:15.845Z,18.33
2023-05-19T05:37:18.186Z,18.36
2023-05-19T05:40:21.364Z,18.42
2023-05-19T05:43:23.759Z,18.47
2023-05-19T05:46:30.700Z,18.54
2023-05-19T06:04:22.439Z,18.76
2023-05-19T06:07:24.999Z,18.80
2023-05-19T06:10:29.193Z,18.86
2023-05-19T06:13:31.664Z,18.87
2023-05-19T06:16:34.081Z,18.92
2023-05-19T06:19:36.244Z,18.96
2023-05-19T06:22:38.672Z,18.98
2023-05-19T06:25:41.142Z,19.02
2023-05-19T06:28:43.614Z,19.04
2023-05-19T06:31:46.725Z,19.05
2023-05-19T06:34:54.480Z,19.10
2023-05-19T06:37:57.353Z,19.14
2023-05-19T06:40:59.575Z,19.20
2023-05-19T06:44:02.586Z,19.27
2023-05-19T06:47:08.181Z,19.30
2023-05-19T06:50:10.986Z,19.31
2023-05-19T06:53:14.724Z,19.37
2023-05-19T06:56:19.172Z,19.44
2023-05-19T06:59:23.216Z,19.50
2023-05-19T07:02:26.371Z,19.56
2023-05-19T07:05:28.965Z,19.64
2023-05-19T07:08:33.006Z,19.76
2023-05-19T07:11:36.433Z,19.88
2023-05-19T07:14:39.238Z,20.01
2023-05-19T07:17:42.161Z,20.14
2023-05-19T07:20:44.295Z,20.31
2023-05-19T07:23:46.369Z,20.46
2023-05-19T07:26:48.551Z,20.63
2023-05-19T07:29:50.798Z,20.80
2023-05-19T07:32:53.024Z,20.93
2023-05-19T07:35:55.239Z,21.05
2023-05-19T07:38:57.451Z,21.21
2023-05-19T07:41:59.585Z,21.33
2023-05-19T07:45:03.449Z,21.46
2023-05-19T07:48:05.762Z,21.61
2023-05-19T07:51:10.469Z,21.74
2023-05-19T07:54:12.827Z,21.86
2023-05-19T07:57:14.936Z,21.99
2023-05-19T08:00:18.171Z,22.14
2023-05-19T08:03:21.140Z,22.34
2023-05-19T08:06:23.593Z,22.59
2023-05-19T08:09:25.771Z,22.91
2023-05-19T08:12:28.220Z,23.19
2023-05-19T08:15:30.408Z,23.44
2023-05-19T08:18:32.812Z,23.61
2023-05-19T08:21:36.772Z,23.75
2023-05-19T08:24:39.612Z,23.83
2023-05-19T08:27:41.865Z,23.74
2023-05-19T08:30:44.084Z,23.52
2023-05-19T08:33:46.415Z,23.41
2023-05-19T08:36:48.971Z,23.46
2023-05-19T08:39:51.087Z,23.59
2023-05-19T08:46:20.626Z,23.61
2023-05-19T08:49:30.656Z,23.52
2023-05-19T08:52:42.689Z,23.44
2023-05-19T08:55:55.040Z,23.44
2023-05-19T08:59:00.585Z,23.56
2023-05-19T09:02:04.652Z,23.65
2023-05-19T09:05:07.810Z,23.68
2023-05-19T09:08:10.303Z,23.60
2023-05-19T09:11:13.126Z,23.45
2023-05-19T09:14:15.697Z,23.39
2023-05-19T09:17:19.298Z,23.24
2023-05-19T09:20:21.568Z,23.24
2023-05-19T09:23:25.369Z,23.35
2023-05-19T09:26:38.017Z,23.59
2023-05-19T09:29:40.236Z,23.91
2023-05-19T09:32:43.765Z,24.02
2023-05-19T09:35:49.554Z,23.91
2023-05-19T09:38:52.375Z,23.51
2023-05-19T09:41:56.443Z,23.27
2023-05-19T09:45:03.168Z,23.20
2023-05-19T09:48:06.611Z,23.35
2023-05-19T09:51:11.185Z,23.28
2023-05-19T09:54:19.448Z,23.19
2023-05-19T09:57:29.589Z,23.10
2023-05-19T10:04:30.151Z,22.84
2023-05-19T10:07:34.085Z,23.07
2023-05-19T10:10:38.697Z,23.39
2023-05-19T10:13:41.762Z,23.58
2023-05-19T10:16:46.109Z,23.57
2023-05-19T10:19:51.360Z,23.61
2023-05-19T10:22:53.612Z,23.80
2023-05-19T10:25:59.666Z,23.84
2023-05-19T10:29:04.096Z,23.89
2023-05-19T10:32:11.777Z,23.96
2023-05-19T10:35:24.640Z,23.87
2023-05-19T10:39:01.705Z,23.93
2023-05-19T10:42:37.194Z,24.09
2023-05-19T10:45:52.352Z,24.18
2023-05-19T10:48:55.990Z,24.25
2023-05-19T10:51:58.340Z,24.49
2023-05-19T10:55:02.724Z,24.90
2023-05-19T10:58:04.887Z,25.34
2023-05-19T11:01:17.553Z,25.74
2023-05-19T11:04:38.867Z,26.29
2023-05-19T11:08:04.861Z,26.74
2023-05-19T11:11:17.454Z,27.05
2023-05-19T11:14:23.353Z,27.07
2023-05-19T11:17:26.471Z,27.18
2023-05-19T11:20:35.266Z,27.09
2023-05-19T11:23:41.075Z,26.93
2023-05-19T11:26:44.065Z,26.86
2023-05-19T11:29:47.236Z,27.11
2023-05-19T11:32:50.028Z,27.04
2023-05-19T11:35:52.483Z,26.85
2023-05-19T11:38:55.305Z,26.77
2023-05-19T11:41:57.743Z,26.47
2023-05-19T11:45:00.241Z,26.28
2023-05-19T11:48:05.927Z,26.06
2023-05-19T11:51:08.394Z,25.94
2023-05-19T11:54:12.481Z,26.11
2023-05-19T11:57:15.229Z,26.28
2023-05-19T12:00:17.678Z,26.39
2023-05-19T12:03:23.622Z,26.62
2023-05-19T12:06:27.043Z,26.77
2023-05-19T12:09:29.435Z,26.87
2023-05-19T12:12:32.447Z,26.89
2023-05-19T12:15:35.145Z,26.84
2023-05-19T12:18:39.089Z,26.64
2023-05-19T12:21:42.144Z,26.31
2023-05-19T12:24:45.622Z,26.13
2023-05-19T12:27:50.081Z,26.00
2023-05-19T12:30:53.769Z,25.80
2023-05-19T12:33:56.556Z,25.41
2023-05-19T12:36:58.921Z,25.07
2023-05-19T12:40:02.442Z,24.82
2023-05-19T12:43:05.796Z,24.97
2023-05-19T12:46:16.626Z,25.32
2023-05-19T12:49:19.084Z,25.68
2023-05-19T12:52:23.933Z,26.08
2023-05-19T12:55:26.218Z,26.70
2023-05-19T12:58:34.536Z,27.45
2023-05-19T13:01:37.813Z,28.08
2023-05-19T13:04:40.088Z,28.19
2023-05-19T13:07:42.559Z,28.15
2023-05-19T13:10:46.184Z,28.30
2023-05-19T13:13:48.411Z,28.65
2023-05-19T13:16:50.714Z,28.97
2023-05-19T13:19:55.471Z,28.73
2023-05-19T13:22:57.827Z,28.38
2023-05-19T13:26:00.312Z,27.91
2023-05-19T13:29:03.061Z,27.59
2023-05-19T13:32:05.417Z,27.53
2023-05-19T13:35:07.846Z,27.54
2023-05-19T13:38:10.846Z,27.62
2023-05-19T13:41:13.873Z,27.93
2023-05-19T13:44:17.488Z,28.26
2023-05-19T13:47:19.838Z,28.59
2023-05-19T13:50:22.460Z,29.04
2023-05-19T13:53:24.842Z,29.31
2023-05-19T13:56:27.287Z,29.33
2023-05-19T13:59:30.167Z,29.24
2023-05-19T14:04:22.233Z,29.21
2023-05-19T14:07:26.020Z,29.44
2023-05-19T14:10:28.318Z,28.55
2023-05-19T14:13:34.775Z,27.10
2023-05-19T14:16:41.274Z,26.00
2023-05-19T14:19:43.635Z,25.51
2023-05-19T14:22:45.994Z,25.60
2023-05-19T14:25:48.195Z,25.80
2023-05-19T14:28:50.842Z,25.40
2023-05-19T14:31:53.486Z,25.11
2023-05-19T14:34:55.967Z,25.16
2023-05-19T14:37:58.295Z,25.31
2023-05-19T14:41:01.115Z,25.20
2023-05-19T14:44:03.715Z,25.17
2023-05-19T14:47:07.705Z,25.46
2023-05-19T14:50:09.974Z,26.35
2023-05-19T14:53:12.404Z,27.05
2023-05-19T14:56:14.682Z,27.27
2023-05-19T14:59:16.981Z,26.94
2023-05-19T15:02:19.330Z,26.57
2023-05-19T15:05:23.367Z,26.23
2023-05-19T15:08:25.625Z,25.62
2023-05-19T15:11:27.883Z,24.87
2023-05-19T15:14:30.993Z,24.17
2023-05-19T15:17:33.656Z,23.57
2023-05-19T15:20:36.099Z,23.40
2023-05-19T15:23:38.691Z,23.13
2023-05-19T15:26:40.905Z,22.91
2023-05-19T15:29:43.275Z,23.32
2023-05-19T15:32:45.311Z,24.04
2023-05-19T15:35:51.828Z,24.48
2023-05-19T15:38:53.971Z,24.40
2023-05-19T15:41:55.981Z,24.35
2023-05-19T15:44:58.214Z,24.30
2023-05-19T15:48:00.425Z,24.23
2023-05-19T15:51:02.696Z,24.37
2023-05-19T15:54:05.034Z,24.21
2023-05-19T15:57:07.339Z,23.81
2023-05-19T16:00:10.316Z,23.36
2023-05-19T16:03:13.193Z,22.99
2023-05-19T16:06:15.374Z,22.64
2023-05-19T16:09:17.563Z,22.52
2023-05-19T16:12:19.798Z,22.49
2023-05-19T16:15:22.276Z,22.28
2023-05-19T16:18:24.445Z,22.11
2023-05-19T16:21:26.624Z,21.90
2023-05-19T16:24:28.788Z,21.61
2023-05-19T16:27:31.042Z,21.34
2023-05-19T16:30:33.683Z,21.09
2023-05-19T16:33:36.428Z,20.82
2023-05-19T16:36:38.765Z,20.62
2023-05-19T16:39:41.016Z,20.54
2023-05-19T16:42:43.267Z,20.52
2023-05-19T16:45:45.309Z,20.49
2023-05-19T16:48:47.481Z,20.43
2023-05-19T16:51:53.208Z,20.35
2023-05-19T16:54:55.526Z,20.27
2023-05-19T16:57:58.293Z,20.21
2023-05-19T17:01:00.621Z,20.13
2023-05-19T17:04:02.841Z,20.18
2023-05-19T17:07:04.908Z,20.38
2023-05-19T17:10:07.901Z,20.54
2023-05-19T17:13:11.499Z,20.52
2023-05-19T17:16:13.672Z,20.33
2023-05-19T17:19:16.590Z,20.11
2023-05-19T17:22:19.465Z,19.89
2023-05-19T17:25:22.122Z,19.72
2023-05-19T17:28:24.448Z,19.65
2023-05-19T17:31:26.617Z,19.61
2023-05-19T17:34:29.779Z,19.53
2023-05-19T17:37:32.021Z,19.43
2023-05-19T17:40:36.228Z,19.31
2023-05-19T17:43:40.529Z,19.20
2023-05-19T17:46:42.903Z,19.12
2023-05-19T17:49:46.488Z,19.06
2023-05-19T17:52:49.440Z,18.98
2023-05-19T17:55:59.597Z,18.89
2023-05-19T17:59:02.251Z,18.81
2023-05-19T18:04:43.609Z,18.65
2023-05-19T18:07:46.723Z,18.57
2023-05-19T18:10:51.167Z,18.48
2023-05-19T18:13:53.386Z,18.41
2023-05-19T18:16:55.780Z,18.34
2023-05-19T18:19:58.439Z,18.27
2023-05-19T18:23:01.290Z,18.20
2023-05-19T18:26:03.918Z,18.14
2023-05-19T18:29:06.394Z,18.09
2023-05-19T18:32:09.006Z,18.02
2023-05-19T18:35:11.772Z,17.96
2023-05-19T18:38:13.859Z,17.91
2023-05-19T18:41:16.730Z,17.87
2023-05-19T18:44:18.807Z,17.84
2023-05-19T18:47:22.856Z,17.80
2023-05-19T18:50:25.275Z,17.75
2023-05-19T18:53:27.487Z,17.70
2023-05-19T18:56:32.886Z,17.66
2023-05-19T18:59:35.194Z,17.63
2023-05-19T19:02:37.274Z,17.60
2023-05-19T19:05:39.644Z,17.58
2023-05-19T19:08:41.610Z,17.54
2023-05-19T19:11:43.834Z,17.50
2023-05-19T19:14:46.410Z,17.47
2023-05-19T19:17:48.361Z,17.45
2023-05-19T19:20:50.518Z,17.43
2023-05-19T19:23:54.462Z,17.41
2023-05-19T19:26:56.630Z,17.38
2023-05-19T19:29:59.165Z,17.35
2023-05-19T19:33:01.259Z,17.33
2023-05-19T19:36:04.616Z,17.30
2023-05-19T19:39:06.701Z,17.26
2023-05-19T19:42:08.771Z,17.22
2023-05-19T19:45:13.979Z,17.17
2023-05-19T19:48:17.661Z,17.12
2023-05-19T19:51:19.748Z,17.08
2023-05-19T19:54:21.717Z,17.04
2023-05-19T19:57:24.836Z,17.00
2023-05-19T20:00:26.962Z,16.98
2023-05-19T20:03:33.008Z,16.96
2023-05-19T20:06:36.625Z,16.93
2023-05-19T20:09:38.906Z,16.91
2023-05-19T20:12:41.182Z,16.89
2023-05-19T20:15:44.283Z,16.86
2023-05-19T20:18:46.357Z,16.83
2023-05-19T20:21:48.510Z,16.81
2023-05-19T20:24:50.659Z,16.79
2023-05-19T20:27:52.760Z,16.78
2023-05-19T20:30:55.049Z,16.74
2023-05-19T20:33:58.168Z,16.72
2023-05-19T20:37:01.500Z,16.69
2023-05-19T20:40:04.512Z,16.68
2023-05-19T20:43:07.191Z,16.66
2023-05-19T20:46:09.722Z,16.64
2023-05-19T20:49:12.091Z,16.62
2023-05-19T20:52:16.459Z,16.59
2023-05-19T20:55:19.119Z,16.56
2023-05-19T20:58:21.590Z,16.54
2023-05-19T21:01:25.104Z,16.52
2023-05-19T21:04:27.634Z,16.50
2023-05-19T21:07:29.614Z,16.48
2023-05-19T21:10:33.790Z,16.45
2023-05-19T21:13:38.923Z,16.42
2023-05-19T21:16:42.272Z,16.39
2023-05-19T21:19:44.419Z,16.37
2023-05-19T21:22:46.785Z,16.37
2023-05-19T21:25:50.399Z,16.35
2023-05-19T21:28:52.593Z,16.34
2023-05-19T21:31:59.512Z,16.32
2023-05-19T21:35:02.001Z,16.29
2023-05-19T21:38:15.633Z,16.26
2023-05-19T21:41:24.802Z,16.24
2023-05-19T21:44:27.059Z,16.21
2023-05-19T21:47:29.342Z,16.18
2023-05-19T21:50:36.307Z,16.16
2023-05-19T21:53:38.583Z,16.13
2023-05-19T21:56:40.664Z,16.09
2023-05-19T21:59:44.329Z,16.07
2023-05-19T22:04:23.049Z,16.04
2023-05-19T22:07:27.264Z,16.05
2023-05-19T22:10:29.659Z,16.04
2023-05-19T22:13:32.683Z,16.03
2023-05-19T22:16:35.395Z,16.01
2023-05-19T22:19:38.353Z,16.00
2023-05-19T22:22:40.731Z,15.99
2023-05-19T22:25:42.896Z,15.96
2023-05-19T22:28:45.275Z,15.95
2023-05-19T22:31:47.849Z,15.93
2023-05-19T22:34:50.193Z,15.92
2023-05-19T22:37:52.249Z,15.92
2023-05-19T22:40:54.388Z,15.91
2023-05-19T22:43:56.656Z,15.93
2023-05-19T22:46:58.779Z,15.95
2023-05-19T22:50:00.930Z,15.98
2023-05-19T22:53:03.025Z,16.00
2023-05-19T22:56:05.364Z,16.02
2023-05-19T22:59:07.479Z,16.04
2023-05-19T23:05:57.907Z,16.03
2023-05-19T23:09:02.394Z,15.97
2023-05-19T23:12:05.262Z,15.94
2023-05-19T23:15:08.993Z,15.90
2023-05-19T23:18:12.051Z,15.85
2023-05-19T23:21:14.487Z,15.79
2023-05-19T23:24:16.771Z,15.73
2023-05-19T23:27:19.085Z,15.68
2023-05-19T23:30:21.462Z,15.62
2023-05-19T23:33:23.901Z,15.55
2023-05-19T23:36:26.231Z,15.50
2023-05-19T23:39:28.377Z,15.44
2023-05-19T23:42:30.552Z,15.39
2023-05-19T23:45:33.203Z,15.35
2023-05-19T23:48:37.028Z,15.31
2023-05-19T23:51:39.188Z,15.27
2023-05-19T23:54:41.461Z,15.21
2023-05-19T23:57:43.752Z,15.17
